createdAt,value
2019-03-06T00:02:20.665Z,1.5
2019-03-06T00:07:25.896Z,1.4
2019-03-06T00:12:30.872Z,1.6
2019-03-06T00:17:36.320Z,1.5
2019-03-06T00:22:41.575Z,1.6
2019-03-06T00:27:47.723Z,1.6
2019-03-06T00:32:53.064Z,1.5
2019-03-06T00:37:59.022Z,1.4
2019-03-06T00:43:04.973Z,1.2
2019-03-06T00:48:10.646Z,1.5
2019-03-06T00:53:16.308Z,1.3
2019-03-06T00:58:21.673Z,1.3
2019-03-06T01:03:29.488Z,1.3
2019-03-06T01:08:35.464Z,1.1
2019-03-06T01:13:41.275Z,1.2
2019-03-06T01:18:46.445Z,1.2
2019-03-06T01:23:52.174Z,1.2
2019-03-06T01:28:58.582Z,1.1
2019-03-06T01:34:04.395Z,1.1
2019-03-06T01:39:10.160Z,1.2
2019-03-06T01:44:15.148Z,1
2019-03-06T01:49:21.423Z,1.3
2019-03-06T01:54:27.187Z,1.1
2019-03-06T01:59:33.300Z,1.2
2019-03-06T02:04:38.461Z,1
2019-03-06T02:09:44.421Z,0.9
2019-03-06T02:14:49.782Z,1
2019-03-06T02:19:55.760Z,1
2019-03-06T02:25:01.629Z,1
2019-03-06T02:30:06.840Z,0.9
2019-03-06T02:35:12.288Z,0.9
2019-03-06T02:40:18.060Z,0.9
2019-03-06T02:45:23.749Z,1
2019-03-06T02:50:29.811Z,0.9
2019-03-06T02:55:35.622Z,0.9
2019-03-06T03:00:41.836Z,0.9
2019-03-06T03:05:47.245Z,0.9
2019-03-06T03:10:53.069Z,0.9
2019-03-06T03:15:58.699Z,0.9
2019-03-06T03:21:04.099Z,0.8
2019-03-06T03:26:09.829Z,0.8
2019-03-06T03:31:15.061Z,0.7
2019-03-06T03:36:20.116Z,0.7
2019-03-06T03:41:25.980Z,0.8
2019-03-06T03:46:31.115Z,0.8
2019-03-06T03:51:36.993Z,0.9
2019-03-06T03:56:41.940Z,0.7
2019-03-06T04:01:47.918Z,0.7
2019-03-06T04:06:52.033Z,0.8
2019-03-06T04:11:58.026Z,0.7
2019-03-06T04:17:03.741Z,0.7
2019-03-06T04:22:09.669Z,0.9
2019-03-06T04:27:13.901Z,0.9
2019-03-06T04:32:19.049Z,0.9
2019-03-06T04:37:23.967Z,0.7
2019-03-06T04:42:29.784Z,0.6
2019-03-06T04:47:34.017Z,0.7
2019-03-06T04:52:38.549Z,0.8
2019-03-06T04:57:44.314Z,0.9
2019-03-06T05:02:50.462Z,0.8
2019-03-06T05:07:56.077Z,0.7
2019-03-06T05:13:02.506Z,0.7
2019-03-06T05:18:07.989Z,0.8
2019-03-06T05:23:13.387Z,0.7
2019-03-06T05:28:18.748Z,0.8
2019-03-06T05:33:24.760Z,0.8
2019-03-06T05:38:29.881Z,0.7
2019-03-06T05:43:35.450Z,0.7
2019-03-06T05:48:41.430Z,0.7
2019-03-06T05:53:45.971Z,0.7
2019-03-06T05:58:50.922Z,0.7
2019-03-06T06:03:56.099Z,0.7
2019-03-06T06:09:06.258Z,0.6
2019-03-06T06:14:12.250Z,0.7
2019-03-06T06:19:17.732Z,0.7
2019-03-06T06:24:22.858Z,0.7
2019-03-06T06:29:27.824Z,0.6
2019-03-06T06:34:33.076Z,0.7
2019-03-06T06:39:38.743Z,0.7
2019-03-06T06:44:45.079Z,0.7
2019-03-06T06:49:51.203Z,0.7
2019-03-06T06:54:55.743Z,0.6
2019-03-06T07:00:01.638Z,0.6
2019-03-06T07:05:07.079Z,0.5
2019-03-06T07:10:12.322Z,0.7
2019-03-06T07:15:17.802Z,0.6
2019-03-06T07:20:23.606Z,0.6
2019-03-06T07:25:28.832Z,0.6
2019-03-06T07:30:34.178Z,0.6
2019-03-06T07:35:40.545Z,0.6
2019-03-06T07:40:46.455Z,0.6
2019-03-06T07:45:52.308Z,0.7
2019-03-06T07:50:57.806Z,0.6
2019-03-06T07:56:03.781Z,0.5
2019-03-06T08:01:20.202Z,0.6
2019-03-06T08:06:16.396Z,0.5
2019-03-06T08:11:21.794Z,1.6
2019-03-06T08:16:28.008Z,1.2
2019-03-06T08:21:33.905Z,1
2019-03-06T08:26:39.217Z,0.9
2019-03-06T08:31:44.689Z,0.8
2019-03-06T08:36:49.531Z,0.8
2019-03-06T08:41:55.496Z,0.7
2019-03-06T08:47:01.687Z,0.9
2019-03-06T08:52:06.776Z,1
2019-03-06T08:57:12.503Z,1.1
2019-03-06T09:02:16.850Z,1.3
2019-03-06T09:07:19.863Z,1.2
2019-03-06T09:12:24.945Z,1
2019-03-06T09:17:33.156Z,1.2
2019-03-06T09:22:37.441Z,1.1
2019-03-06T09:27:43.081Z,1.1
2019-03-06T09:32:48.714Z,1.4
2019-03-06T09:37:54.330Z,1.3
2019-03-06T09:43:00.176Z,1.5
2019-03-06T09:48:06.015Z,1.7
2019-03-06T09:53:12.006Z,1.4
2019-03-06T09:58:17.733Z,1.5
2019-03-06T10:03:23.644Z,1.6
2019-03-06T10:08:28.836Z,1.7
2019-03-06T10:13:34.383Z,1.4
2019-03-06T10:18:37.251Z,1.7
2019-03-06T10:23:42.755Z,1.6
2019-03-06T10:28:48.707Z,1.5
2019-03-06T10:33:54.894Z,1.5
2019-03-06T10:39:01.028Z,1.3
2019-03-06T10:44:06.544Z,1.5
2019-03-06T10:49:11.993Z,1.4
2019-03-06T10:54:18.182Z,1.5
2019-03-06T10:59:24.167Z,2
2019-03-06T11:04:29.529Z,2
2019-03-06T11:09:35.800Z,2.1
2019-03-06T11:14:40.365Z,1.9
2019-03-06T11:19:45.915Z,1.8
2019-03-06T11:24:52.209Z,2
2019-03-06T11:29:58.960Z,2.1
2019-03-06T11:35:05.391Z,2.1
2019-03-06T11:40:11.466Z,2
2019-03-06T11:45:16.608Z,1.7
2019-03-06T11:50:21.833Z,1.6
2019-03-06T11:55:27.660Z,1.8
2019-03-06T12:00:33.825Z,1.7
2019-03-06T12:05:40.012Z,1.7
2019-03-06T12:10:45.681Z,1.7
2019-03-06T12:15:51.544Z,2.1
2019-03-06T12:20:57.019Z,2.1
2019-03-06T12:26:02.996Z,1.6
2019-03-06T12:31:08.386Z,1.5
2019-03-06T12:36:14.337Z,1.4
2019-03-06T12:41:18.856Z,1.4
2019-03-06T12:46:25.372Z,1.2
2019-03-06T12:51:31.345Z,1.2
2019-03-06T12:56:36.704Z,1.1
2019-03-06T13:01:42.364Z,1.1
2019-03-06T13:06:47.733Z,1.2
2019-03-06T13:11:54.061Z,1.2
2019-03-06T13:17:00.303Z,1.2
2019-03-06T13:22:13.345Z,1.2
2019-03-06T13:27:10.132Z,1
2019-03-06T13:32:16.999Z,1
2019-03-06T13:37:22.685Z,1
2019-03-06T13:42:28.812Z,1
2019-03-06T13:47:33.909Z,1.1
2019-03-06T13:52:39.710Z,1
2019-03-06T13:57:45.916Z,1.1
2019-03-06T14:02:52.012Z,1
2019-03-06T14:07:57.917Z,1
2019-03-06T14:13:04.319Z,0.9
2019-03-06T14:18:09.562Z,1.1
2019-03-06T14:23:15.551Z,1
2019-03-06T14:28:21.202Z,1
2019-03-06T14:33:26.972Z,1
2019-03-06T14:38:32.743Z,1
2019-03-06T14:43:39.056Z,0.9
2019-03-06T14:48:45.843Z,1
2019-03-06T14:53:52.317Z,1.1
2019-03-06T14:58:58.286Z,1
2019-03-06T15:04:04.140Z,1
2019-03-06T15:09:09.310Z,0.9
2019-03-06T15:14:15.590Z,1
2019-03-06T15:19:21.588Z,1
2019-03-06T15:24:27.875Z,1
2019-03-06T15:29:33.845Z,1.2
2019-03-06T15:34:39.498Z,1.9
2019-03-06T15:39:49.608Z,1.5
2019-03-06T15:44:54.068Z,1.4
2019-03-06T15:49:59.792Z,1.3
2019-03-06T15:55:07.129Z,1.4
2019-03-06T16:00:12.656Z,1.3
2019-03-06T16:05:18.748Z,1.3
2019-03-06T16:10:24.413Z,1.4
2019-03-06T16:15:29.581Z,1.4
2019-03-06T16:20:39.140Z,1.5
2019-03-06T16:25:45.413Z,1.5
2019-03-06T16:30:48.337Z,1.5
2019-03-06T16:35:54.302Z,1.3
2019-03-06T16:41:00.270Z,1.7
2019-03-06T16:46:05.122Z,1.8
2019-03-06T16:51:11.308Z,1.7
2019-03-06T16:56:17.466Z,1.4
2019-03-06T17:01:23.552Z,1.8
2019-03-06T17:06:33.291Z,1.7
2019-03-06T17:11:39.688Z,1.8
2019-03-06T17:16:46.404Z,1.3
2019-03-06T17:21:52.413Z,1.5
2019-03-06T17:26:58.914Z,1.3
2019-03-06T17:32:04.506Z,1.1
2019-03-06T17:37:10.614Z,1.3
2019-03-06T17:42:15.974Z,1.1
2019-03-06T17:47:22.397Z,1.1
2019-03-06T17:52:28.853Z,1.4
2019-03-06T17:57:34.760Z,1.2
2019-03-06T18:02:40.192Z,1.2
2019-03-06T18:07:46.127Z,1.1
2019-03-06T18:12:50.260Z,1.4
2019-03-06T18:17:57.809Z,1.3
2019-03-06T18:23:03.001Z,1.3
2019-03-06T18:28:08.974Z,1.1
2019-03-06T18:33:14.248Z,1.2
2019-03-06T18:38:20.630Z,1.1
2019-03-06T18:43:25.987Z,1.3
2019-03-06T18:48:31.602Z,1.4
2019-03-06T18:53:37.185Z,1.3
2019-03-06T18:58:42.930Z,1.5
2019-03-06T19:03:48.352Z,1.4
2019-03-06T19:08:53.657Z,1.4
2019-03-06T19:14:00.024Z,5
2019-03-06T19:19:05.636Z,5.3
2019-03-06T19:24:10.488Z,4.4
2019-03-06T19:29:16.690Z,3.9
2019-03-06T19:34:22.532Z,3.2
2019-03-06T19:39:28.209Z,2.7
2019-03-06T19:44:33.956Z,3.1
2019-03-06T19:49:40.194Z,2.9
2019-03-06T19:54:45.699Z,4.6
2019-03-06T19:59:54.005Z,3
2019-03-06T20:05:00.853Z,2.2
2019-03-06T20:10:07.123Z,2
2019-03-06T20:15:13.126Z,1.8
2019-03-06T20:20:19.230Z,1.5
2019-03-06T20:25:24.767Z,1.6
2019-03-06T20:30:31.102Z,1.4
2019-03-06T20:35:36.261Z,1.4
2019-03-06T20:40:45.888Z,1.4
2019-03-06T20:45:52.032Z,1.1
2019-03-06T20:50:58.820Z,1.1
2019-03-06T20:56:04.571Z,1.1
2019-03-06T21:01:08.909Z,1.2
2019-03-06T21:06:14.544Z,1.3
